William P Hobby Airport
KHOU : now visible

Airfield :











YOU CAN JOIN US ON...

 
LOGIN :

Register | Disclaimer

   EN    FR    IT 

 









Legend :    VFR   Marginal VFR   IFR   Intensive IFR   Very Intensive IFR
Visi :
Ceiling :
>= 8 km
>= 3000ft
5 to 8 km
1000 to 3000 ft
1500m to 5 km
500 to 1000 ft
800 to 1500m
200 to 500 ft
< 800m
< 200 ft
Symbols :   Thunderstorms  Fog  Heavy snow  Heavy precipitations  Wind > 20 kt






- Airport Elevation : 46 ft
- IATA code : HOU


KHOU - William P Hobby

CURRENT METAR :
  • 021653Z 22010G17KT 10SM SCT045 SCT250 33/21 A2997 RMK AO2 SLP152 T03330211

EXPIRED METARs :
  • 021553Z 21010KT 10SM SCT030 SCT045 SCT250 32/22 A2997 RMK AO2 SLP153 T03170217
  • 021453Z 22010KT 10SM FEW020 SCT045 SCT250 31/23 A2997 RMK AO2 SLP152 T03110233 51008
  • 020253Z 16009KT 10SM FEW055 BKN250 28/24 A2991 RMK AO2 SLP132 60000 T02780244 52007

TAF KHOU
Valid from the 02 at 15:00 until the 03 at 12:00 UTC


021442Z 0215/0312 19009KT P6SM SCT020 BKN250
FM021600 21008KT P6SM VCSH SCT020 BKN035
FM022000 17010KT P6SM FEW020 OVC045
FM030600 VRB05KT P6SM SCT015
KZHU FIR / North America



MET'MAP, your aeronautical weather chart ! - Copyright ORBIFLY December 2007 - Disclaimer

ORBIFLY MET'MAP TEAM :

Programming & Development : Alexandra Zaïnal
Original concept : Baudouin d'Aumeries
Technical & hardware support : Manuel Goepfert
Assistance : Marc-Olivier Méhu




SOURCES & CREDITS :

   NOAA       Earth
Advisory